Time;durP1;ratioP1;P1;durP2;ratioP2;P2;SDS_P1;SDS_P2;PMS_P1;PMS_P2;Temp;Humidity;BMP_temperature;BMP_pressure;BME280_temperature;BME280_humidity;BME280_pressure;Samples;Min_cycle;Max_cycle;Signal;HPM_P1;HPM_P2
2023/10/13 00:01:58;;;;;;;4.15;2.30;;;19.70;99.20;;;;;;4975415;28;20033;-39
2023/10/13 00:04:24;;;;;;;4.00;2.40;;;19.70;99.20;;;;;;4977030;28;20026;-40
2023/10/13 00:06:52;;;;;;;3.10;1.75;;;19.70;99.10;;;;;;4976771;28;20085;-38
2023/10/13 00:09:19;;;;;;;4.28;2.60;;;19.70;99.20;;;;;;4975794;28;20042;-38
2023/10/13 00:11:45;;;;;;;3.28;1.80;;;19.70;99.20;;;;;;4975976;28;20030;-35
2023/10/13 00:14:16;;;;;;;3.97;2.10;;;19.70;99.20;;;;;;4975250;28;20381;-37
2023/10/13 00:16:43;;;;;;;3.05;1.88;;;19.70;99.10;;;;;;4975002;28;20163;-36
2023/10/13 00:19:13;;;;;;;3.92;2.17;;;19.70;99.10;;;;;;4975427;28;20465;-36
2023/10/13 00:21:39;;;;;;;4.55;2.40;;;19.70;99.10;;;;;;4974958;28;20027;-36
2023/10/13 00:24:12;;;;;;;5.60;2.50;;;19.70;99.10;;;;;;4974938;28;20042;-35
2023/10/13 00:26:38;;;;;;;3.42;2.15;;;19.70;99.10;;;;;;4974873;28;20027;-35
2023/10/13 00:31:36;;;;;;;2.95;2.00;;;19.70;99.20;;;;;;4974887;28;20030;-35
2023/10/13 00:34:28;;;;;;;3.80;2.40;;;19.70;99.20;;;;;;4975053;28;20252;-38
2023/10/13 00:37:27;;;;;;;3.13;2.22;;;19.70;99.10;;;;;;4974570;28;20026;-37
2023/10/13 00:39:56;;;;;;;4.70;2.28;;;19.70;99.10;;;;;;4974837;28;20026;-37
2023/10/13 00:42:50;;;;;;;2.97;2.20;;;19.70;99.10;;;;;;4974657;28;20041;-37
2023/10/13 00:45:08;;;;;;;4.65;2.40;;;19.70;99.20;;;;;;4974383;28;20411;-37
2023/10/13 00:50:04;;;;;;;4.07;2.30;;;19.70;99.10;;;;;;4974781;28;20026;-37
2023/10/13 00:52:34;;;;;;;3.60;2.05;;;19.70;99.10;;;;;;4974693;28;20365;-37
2023/10/13 00:55:01;;;;;;;4.63;2.33;;;19.70;99.10;;;;;;4974378;28;20058;-37
2023/10/13 00:57:28;;;;;;;4.40;2.25;;;19.70;99.10;;;;;;4974206;28;20125;-35
2023/10/13 00:59:55;;;;;;;4.32;2.13;;;19.70;99.10;;;;;;4974340;28;20089;-35
2023/10/13 01:05:03;;;;;;;4.97;2.10;;;19.70;99.10;;;;;;4974180;28;20114;-35
2023/10/13 01:07:29;;;;;;;2.95;2.05;;;19.70;99.10;;;;;;4973936;28;20039;-37
2023/10/13 01:09:55;;;;;;;4.75;2.55;;;19.60;99.00;;;;;;4974210;28;20419;-34
2023/10/13 01:12:24;;;;;;;7.00;2.30;;;19.70;99.10;;;;;;4974158;28;20023;-36
2023/10/13 01:14:50;;;;;;;3.22;2.38;;;19.70;99.10;;;;;;4974049;28;20110;-34
2023/10/13 01:17:16;;;;;;;4.55;2.30;;;19.70;99.00;;;;;;4973888;28;20460;-37
2023/10/13 01:19:45;;;;;;;6.18;2.50;;;19.60;98.90;;;;;;4973753;28;20084;-34
2023/10/13 01:22:11;;;;;;;5.25;2.63;;;19.60;98.90;;;;;;4973841;28;20034;-37
2023/10/13 01:24:37;;;;;;;4.72;2.30;;;19.60;98.90;;;;;;4973814;28;20034;-36
2023/10/13 01:27:25;;;;;;;4.47;2.38;;;19.60;98.90;;;;;;4973749;28;20392;-34
2023/10/13 01:29:55;;;;;;;4.95;2.20;;;19.60;98.90;;;;;;4943238;28;20023;-35
2023/10/13 01:32:22;;;;;;;3.40;2.40;;;19.60;98.90;;;;;;4973801;28;20019;-39
2023/10/13 01:34:49;;;;;;;7.03;2.20;;;19.60;98.90;;;;;;4973493;28;20035;-34
2023/10/13 01:37:19;;;;;;;4.18;2.53;;;19.60;98.90;;;;;;4973856;28;20114;-40
2023/10/13 01:39:49;;;;;;;5.22;2.20;;;19.60;98.90;;;;;;4956223;28;20023;-40
2023/10/13 01:42:19;;;;;;;5.57;3.05;;;19.60;98.90;;;;;;4973549;28;20019;-38
2023/10/13 01:44:45;;;;;;;4.35;2.47;;;19.60;98.90;;;;;;4973497;28;20027;-41
2023/10/13 01:47:12;;;;;;;5.03;2.45;;;19.60;98.90;;;;;;4973150;28;20023;-41
2023/10/13 01:49:47;;;;;;;4.35;2.30;;;19.60;98.90;;;;;;4973498;28;20027;-37
2023/10/13 01:52:17;;;;;;;4.70;2.28;;;19.60;98.80;;;;;;4973486;28;20508;-44
2023/10/13 01:54:48;;;;;;;4.53;2.30;;;19.60;98.90;;;;;;4973351;28;20038;-40
2023/10/13 01:57:17;;;;;;;4.05;2.47;;;19.60;98.90;;;;;;4973254;28;20022;-40
2023/10/13 01:59:44;;;;;;;5.55;2.47;;;19.60;98.90;;;;;;4973189;28;20027;-39
2023/10/13 02:02:14;;;;;;;5.95;2.42;;;19.60;99.20;;;;;;4973135;28;20141;-38
2023/10/13 02:04:48;;;;;;;4.80;2.40;;;19.60;98.90;;;;;;4973118;28;20019;-43
2023/10/13 02:07:17;;;;;;;7.25;2.38;;;19.60;98.90;;;;;;4972852;28;20023;-40
2023/10/13 02:09:43;;;;;;;5.97;2.60;;;19.60;98.90;;;;;;4973001;28;20035;-43
2023/10/13 02:12:09;;;;;;;5.78;2.83;;;19.60;98.80;;;;;;4973046;28;20382;-38
2023/10/13 02:14:42;;;;;;;5.40;2.55;;;19.60;98.80;;;;;;4972986;28;20023;-37
2023/10/13 02:17:16;;;;;;;6.72;2.78;;;19.60;98.80;;;;;;4972999;28;20027;-38
2023/10/13 02:19:45;;;;;;;5.15;2.45;;;19.50;98.80;;;;;;4973123;28;20081;-38
2023/10/13 02:22:11;;;;;;;5.63;2.47;;;19.60;98.80;;;;;;4973008;28;20023;-37
2023/10/13 02:24:40;;;;;;;3.78;2.65;;;19.60;98.80;;;;;;4972895;28;20046;-37
2023/10/13 02:27:14;;;;;;;5.07;2.55;;;19.60;98.80;;;;;;4972693;28;20033;-37
2023/10/13 02:29:41;;;;;;;5.03;2.70;;;19.60;98.80;;;;;;4972872;28;20400;-37
2023/10/13 02:32:18;;;;;;;4.13;2.35;;;19.60;98.80;;;;;;4972262;28;20081;-37
2023/10/13 02:34:44;;;;;;;5.50;2.40;;;19.60;98.80;;;;;;4972752;28;20038;-35
2023/10/13 02:37:11;;;;;;;3.95;2.58;;;19.60;98.80;;;;;;4972385;28;20118;-36
2023/10/13 02:39:41;;;;;;;5.65;2.55;;;19.50;98.80;;;;;;4972652;28;20026;-36
2023/10/13 02:42:07;;;;;;;6.20;2.55;;;19.50;98.70;;;;;;4972615;28;20026;-36
2023/10/13 02:44:36;;;;;;;5.90;2.75;;;19.60;98.80;;;;;;4972681;28;20373;-42
2023/10/13 02:47:14;;;;;;;6.20;3.28;;;19.50;98.70;;;;;;4972276;28;20106;-41
2023/10/13 02:49:43;;;;;;;6.47;2.65;;;19.50;98.70;;;;;;4973028;28;20433;-39
2023/10/13 02:52:09;;;;;;;5.15;2.55;;;19.50;98.70;;;;;;4972723;28;20022;-44
2023/10/13 02:54:46;;;;;;;5.22;2.45;;;19.50;98.80;;;;;;4972684;28;20030;-40
2023/10/13 02:57:15;;;;;;;6.45;2.70;;;19.50;98.80;;;;;;4972442;28;20060;-40
2023/10/13 02:59:46;;;;;;;5.85;2.58;;;19.50;98.70;;;;;;4972537;28;20024;-42
2023/10/13 03:02:29;;;;;;;6.30;2.70;;;19.50;98.70;;;;;;4971142;28;20122;-37
2023/10/13 03:04:59;;;;;;;4.90;2.70;;;19.50;98.70;;;;;;4972432;28;20093;-40
2023/10/13 03:07:28;;;;;;;4.97;2.40;;;19.50;98.70;;;;;;4972280;28;20027;-38
2023/10/13 03:09:59;;;;;;;4.05;2.65;;;19.50;99.00;;;;;;4972392;28;20070;-37
2023/10/13 03:12:25;;;;;;;5.70;2.28;;;19.50;98.70;;;;;;4972406;28;20033;-40
2023/10/13 03:14:55;;;;;;;3.38;2.47;;;19.50;98.70;;;;;;4972177;28;20030;-42
2023/10/13 03:17:33;;;;;;;5.55;2.47;;;19.50;98.70;;;;;;4972261;28;20089;-42
2023/10/13 03:19:59;;;;;;;5.35;2.78;;;19.50;98.70;;;;;;4972328;28;20093;-39
2023/10/13 03:22:31;;;;;;;7.32;2.65;;;19.50;98.70;;;;;;4972312;28;20050;-36
2023/10/13 03:25:05;;;;;;;5.28;2.58;;;19.50;98.70;;;;;;4972434;28;20074;-36
2023/10/13 03:30:15;;;;;;;4.53;2.60;;;19.50;98.70;;;;;;4972302;28;20495;-36
2023/10/13 03:33:01;;;;;;;6.55;3.05;;;19.40;98.60;;;;;;4972348;28;20014;-35
2023/10/13 03:35:37;;;;;;;6.25;2.63;;;19.50;98.60;;;;;;4972408;28;20472;-36
2023/10/13 03:38:03;;;;;;;4.00;2.17;;;19.50;98.60;;;;;;4972121;28;20034;-36
2023/10/13 03:43:12;;;;;;;5.10;2.25;;;19.40;98.60;;;;;;4974034;28;20019;-35
2023/10/13 03:45:42;;;;;;;5.53;2.80;;;19.50;98.60;;;;;;4978885;28;20387;-36
2023/10/13 03:48:27;;;;;;;5.93;2.75;;;19.40;98.60;;;;;;4975724;28;20019;-35
2023/10/13 03:51:08;;;;;;;5.10;2.70;;;19.40;98.60;;;;;;4975623;28;20023;-36
2023/10/13 03:53:35;;;;;;;5.95;2.65;;;19.40;98.50;;;;;;4975717;28;20425;-36
2023/10/13 03:56:08;;;;;;;4.97;2.55;;;19.40;98.50;;;;;;4975367;28;20026;-36
2023/10/13 03:58:45;;;;;;;5.88;2.90;;;19.40;98.50;;;;;;4975318;28;20026;-35
2023/10/13 04:01:15;;;;;;;5.22;2.60;;;19.40;98.50;;;;;;4942684;28;20033;-36
2023/10/13 04:03:57;;;;;;;3.58;2.38;;;19.40;98.90;;;;;;4975399;28;20396;-37
2023/10/13 04:06:48;;;;;;;6.75;2.80;;;19.40;98.60;;;;;;4975171;28;20022;-36
2023/10/13 04:12:21;;;;;;;7.30;2.92;;;19.40;98.50;;;;;;4975205;28;20022;-35
2023/10/13 04:17:25;;;;;;;5.82;2.40;;;19.40;98.50;;;;;;4975020;28;20027;-35
2023/10/13 04:33:36;;;;;;;6.82;2.53;;;19.40;98.50;;;;;;4974854;28;20027;-38
2023/10/13 04:41:23;;;;;;;5.45;2.58;;;19.40;98.50;;;;;;4974836;28;20031;-35
2023/10/13 04:44:04;;;;;;;5.18;2.67;;;19.30;98.50;;;;;;4974637;28;20136;-38
2023/10/13 04:49:27;;;;;;;4.03;2.55;;;19.30;98.50;;;;;;4974760;28;20065;-38
2023/10/13 04:54:49;;;;;;;4.65;2.60;;;19.40;98.50;;;;;;4974167;28;20026;-36
2023/10/13 04:57:46;;;;;;;7.82;2.83;;;19.30;98.40;;;;;;4974730;28;20026;-36
2023/10/13 05:00:55;;;;;;;7.45;2.63;;;19.30;98.40;;;;;;4974932;28;20019;-36
2023/10/13 06:30:03;;;;;;;5.00;2.72;;;19.30;98.40;;;;;;4972841;28;20058;-39
2023/10/13 06:32:28;;;;;;;5.70;2.58;;;19.30;98.30;;;;;;4972769;28;20023;-40
2023/10/13 06:34:58;;;;;;;4.35;2.60;;;19.30;98.30;;;;;;4972657;28;20023;-44
2023/10/13 06:37:31;;;;;;;5.38;2.90;;;19.30;98.30;;;;;;4972498;28;20073;-39
2023/10/13 06:40:22;;;;;;;4.97;2.70;;;19.30;98.30;;;;;;4971420;28;20030;-43
2023/10/13 06:42:50;;;;;;;4.45;2.85;;;19.30;98.30;;;;;;4972944;28;20073;-45
2023/10/13 06:45:20;;;;;;;5.40;2.67;;;19.30;98.40;;;;;;4972448;28;20567;-41
2023/10/13 06:47:46;;;;;;;4.47;2.67;;;19.30;98.40;;;;;;4972546;28;20043;-40
2023/10/13 06:50:15;;;;;;;4.25;2.53;;;19.30;98.50;;;;;;4972568;28;20030;-41
2023/10/13 06:52:44;;;;;;;4.47;2.60;;;19.30;98.50;;;;;;4972528;28;20023;-40
2023/10/13 06:55:23;;;;;;;4.85;2.63;;;19.30;98.60;;;;;;4972338;28;20568;-36
2023/10/13 06:57:51;;;;;;;4.25;2.67;;;19.30;98.70;;;;;;4972324;28;20081;-35
2023/10/13 07:00:27;;;;;;;3.78;2.33;;;19.30;98.70;;;;;;4972466;28;20034;-35
2023/10/13 07:02:52;;;;;;;4.63;2.60;;;19.30;98.60;;;;;;4972475;28;20030;-36
2023/10/13 07:05:19;;;;;;;4.22;2.80;;;19.40;98.70;;;;;;4972476;28;20027;-42
2023/10/13 07:07:45;;;;;;;3.88;2.15;;;19.40;98.70;;;;;;4972652;28;20026;-42
2023/10/13 07:10:12;;;;;;;4.18;2.55;;;19.30;98.70;;;;;;4972172;28;20153;-40
2023/10/13 07:12:43;;;;;;;3.40;2.10;;;19.40;98.80;;;;;;4972360;28;20027;-38
2023/10/13 07:17:44;;;;;;;2.92;2.42;;;19.40;98.80;;;;;;4972446;28;20045;-42
2023/10/13 07:23:02;;;;;;;4.32;2.30;;;19.40;98.80;;;;;;4977757;28;20474;-40
2023/10/13 07:25:32;;;;;;;4.93;2.37;;;19.40;98.80;;;;;;4960283;28;20035;-39
2023/10/13 07:28:00;;;;;;;3.85;2.38;;;19.40;98.80;;;;;;4958617;28;20297;-38
2023/10/13 07:30:27;;;;;;;3.70;2.30;;;19.40;98.90;;;;;;4976028;28;20035;-37
2023/10/13 07:32:54;;;;;;;3.28;2.47;;;19.40;98.80;;;;;;4975984;28;20384;-37
2023/10/13 07:35:24;;;;;;;4.28;2.38;;;19.40;99.20;;;;;;4976263;28;20015;-38
2023/10/13 07:37:53;;;;;;;11.35;3.67;;;19.40;98.90;;;;;;4976049;28;20616;-42
2023/10/13 07:42:52;;;;;;;10.07;4.15;;;19.40;97.50;;;;;;4975782;28;20050;-40
2023/10/13 07:45:21;;;;;;;12.32;3.72;;;19.40;98.10;;;;;;4975637;28;20030;-39
2023/10/13 07:47:48;;;;;;;5.22;3.50;;;19.40;97.90;;;;;;4975394;28;20023;-39
2023/10/13 07:50:14;;;;;;;7.47;3.30;;;19.50;98.00;;;;;;4975802;28;20033;-41
2023/10/13 07:52:42;;;;;;;8.60;3.38;;;19.50;98.10;;;;;;4975589;28;20018;-36
2023/10/13 07:55:21;;;;;;;6.82;3.88;;;19.60;98.10;;;;;;4975468;28;20424;-35
2023/10/13 07:57:53;;;;;;;10.35;3.13;;;19.60;98.10;;;;;;4975713;28;20381;-39
2023/10/13 08:00:27;;;;;;;10.10;3.30;;;19.60;98.10;;;;;;4975440;28;20022;-38
2023/10/13 08:08:38;;;;;;;5.18;3.30;;;19.70;98.10;;;;;;4975237;28;20361;-36
2023/10/13 08:11:11;;;;;;;10.38;2.88;;;19.80;98.20;;;;;;4975247;28;20047;-35
2023/10/13 08:13:46;;;;;;;6.33;3.17;;;19.80;98.10;;;;;;4975312;28;20026;-40
2023/10/13 08:16:22;;;;;;;7.70;3.28;;;19.80;98.10;;;;;;4974989;28;20025;-35
2023/10/13 08:18:49;;;;;;;7.30;3.80;;;19.90;98.10;;;;;;4975081;28;20439;-37
2023/10/13 08:21:19;;;;;;;6.07;3.25;;;19.90;98.10;;;;;;4975081;28;20030;-35
2023/10/13 08:34:59;;;;;;;7.75;3.60;;;20.10;97.90;;;;;;4974856;28;20026;-39
2023/10/13 08:45:20;;;;;;;17.65;3.33;;;20.40;95.60;;;;;;4974707;28;20054;-35
2023/10/13 08:47:53;;;;;;;12.13;3.30;;;20.40;95.90;;;;;;4974434;28;20142;-37
2023/10/13 08:53:26;;;;;;;12.35;3.10;;;20.50;96.20;;;;;;4974563;28;20030;-35
2023/10/13 08:56:04;;;;;;;;;;;20.50;96.10;;;;;;4974678;28;20041;-35
2023/10/13 09:04:20;;;;;;;11.23;3.10;;;20.60;96.30;;;;;;4974382;28;20066;-35
2023/10/13 09:09:35;;;;;;;11.10;3.15;;;20.60;96.20;;;;;;4972765;28;20027;-36
2023/10/13 09:12:38;;;;;;;7.90;2.88;;;20.60;96.30;;;;;;4974146;28;20023;-34
2023/10/13 09:18:15;;;;;;;9.38;3.05;;;20.70;96.20;;;;;;4973888;28;20378;-36
2023/10/13 09:23:24;;;;;;;18.55;3.40;;;20.70;96.20;;;;;;4973986;28;20045;-35
2023/10/13 09:25:53;;;;;;;8.43;3.13;;;20.70;96.20;;;;;;4958474;28;20424;-36
2023/10/13 09:28:22;;;;;;;12.77;3.53;;;20.80;96.20;;;;;;4973899;28;20039;-42
2023/10/13 09:30:53;;;;;;;9.82;3.15;;;20.80;96.20;;;;;;4973734;28;20026;-38
2023/10/13 09:33:33;;;;;;;8.93;2.95;;;20.80;96.30;;;;;;4973730;28;20369;-40
2023/10/13 09:36:07;;;;;;;11.70;2.80;;;20.80;96.30;;;;;;4973409;28;20397;-36
2023/10/13 09:38:34;;;;;;;13.52;3.22;;;20.80;96.10;;;;;;4973986;28;20035;-34
2023/10/13 09:41:17;;;;;;;9.13;2.63;;;20.80;95.70;;;;;;4973323;28;20113;-36
2023/10/13 09:43:44;;;;;;;11.63;2.88;;;20.80;95.60;;;;;;4973629;28;20030;-34
2023/10/13 09:46:18;;;;;;;14.40;3.25;;;20.80;95.70;;;;;;4973390;28;20093;-37
2023/10/13 09:48:46;;;;;;;12.50;3.03;;;20.80;95.60;;;;;;4973699;28;20037;-35
2023/10/13 09:51:22;;;;;;;12.88;3.38;;;20.80;95.40;;;;;;4973432;28;20117;-36
2023/10/13 09:53:56;;;;;;;10.52;3.17;;;20.90;95.60;;;;;;4973421;28;20027;-35
2023/10/13 09:56:28;;;;;;;12.68;3.03;;;20.90;95.60;;;;;;4973209;28;20527;-35
2023/10/13 09:59:12;;;;;;;9.43;3.08;;;20.90;95.60;;;;;;4973210;28;20035;-34
2023/10/13 10:01:50;;;;;;;17.80;3.00;;;20.90;95.70;;;;;;4973306;28;20054;-40
2023/10/13 10:04:18;;;;;;;6.72;2.72;;;20.90;95.70;;;;;;4973267;28;20504;-35
2023/10/13 10:06:57;;;;;;;9.35;2.45;;;21.00;95.80;;;;;;4972967;28;20034;-34
2023/10/13 10:09:34;;;;;;;6.90;2.53;;;20.90;95.80;;;;;;4972964;28;20417;-35
2023/10/13 10:12:18;;;;;;;9.73;2.80;;;20.90;95.80;;;;;;4973104;28;20027;-36
2023/10/13 10:14:59;;;;;;;6.47;2.40;;;20.90;95.80;;;;;;4955691;28;20392;-34
2023/10/13 10:17:29;;;;;;;8.77;2.75;;;20.90;95.90;;;;;;4972864;28;20026;-38
2023/10/13 10:19:56;;;;;;;7.38;3.00;;;20.90;95.90;;;;;;4973166;28;20027;-37
2023/10/13 10:22:36;;;;;;;6.43;2.95;;;20.90;95.90;;;;;;4973007;28;20019;-35
2023/10/13 10:25:03;;;;;;;6.10;2.83;;;20.90;96.00;;;;;;4972804;28;20023;-35
2023/10/13 10:27:31;;;;;;;9.35;2.60;;;20.90;96.00;;;;;;4972666;28;20022;-38
2023/10/13 10:29:58;;;;;;;9.07;2.72;;;20.90;96.00;;;;;;4972796;28;20130;-37
2023/10/13 10:32:34;;;;;;;9.98;2.95;;;20.90;96.00;;;;;;4972613;28;20027;-35
2023/10/13 10:35:09;;;;;;;7.90;2.63;;;20.90;96.10;;;;;;4972768;28;20023;-34
2023/10/13 10:37:36;;;;;;;4.63;2.45;;;20.80;96.00;;;;;;4972484;28;20492;-35
2023/10/13 10:40:07;;;;;;;5.50;2.30;;;20.80;96.40;;;;;;4955290;28;20636;-36
2023/10/13 10:42:34;;;;;;;3.92;2.08;;;20.80;96.10;;;;;;4972669;28;20053;-37
2023/10/13 10:45:08;;;;;;;5.28;2.70;;;20.80;96.10;;;;;;4972473;28;20369;-37
2023/10/13 10:47:38;;;;;;;5.55;2.22;;;20.80;96.20;;;;;;4972435;28;20027;-36
2023/10/13 10:50:19;;;;;;;5.63;2.88;;;20.80;96.50;;;;;;4972606;28;20022;-36
2023/10/13 10:52:45;;;;;;;7.35;2.17;;;20.80;96.10;;;;;;4972058;28;20023;-35
2023/10/13 10:55:13;;;;;;;5.25;2.33;;;20.80;96.20;;;;;;4972343;28;20018;-35
2023/10/13 10:57:43;;;;;;;5.10;2.60;;;20.80;96.10;;;;;;4971132;28;20045;-35
2023/10/13 11:00:19;;;;;;;5.10;2.35;;;20.80;96.20;;;;;;4971282;28;20034;-35
2023/10/13 11:02:55;;;;;;;7.13;2.30;;;20.80;96.20;;;;;;4972636;28;20027;-34
2023/10/13 11:05:21;;;;;;;6.38;2.30;;;20.80;96.20;;;;;;4972295;28;20030;-34
2023/10/13 11:07:50;;;;;;;6.28;2.30;;;20.80;96.20;;;;;;4972126;28;20035;-34
2023/10/13 11:10:31;;;;;;;5.97;2.75;;;20.80;96.20;;;;;;4972326;28;20506;-34
2023/10/13 11:13:15;;;;;;;5.53;1.92;;;20.80;96.20;;;;;;4972407;28;20396;-35
2023/10/13 11:15:45;;;;;;;5.80;2.67;;;20.80;96.20;;;;;;4972342;28;20019;-34
2023/10/13 11:18:23;;;;;;;4.47;2.22;;;20.80;96.20;;;;;;4972039;28;20090;-35
2023/10/13 11:20:55;;;;;;;6.07;2.33;;;20.80;96.10;;;;;;4972316;28;20034;-34
2023/10/13 11:23:27;;;;;;;5.55;2.35;;;20.80;96.10;;;;;;4972443;28;20037;-35
2023/10/13 11:25:59;;;;;;;6.00;2.17;;;20.90;96.10;;;;;;4972091;28;20029;-35
2023/10/13 11:28:28;;;;;;;7.28;2.35;;;20.80;96.10;;;;;;4971951;28;20034;-35
2023/10/13 11:31:00;;;;;;;5.28;2.60;;;20.80;96.10;;;;;;4972226;28;20042;-34
2023/10/13 11:33:31;;;;;;;7.80;2.30;;;20.80;96.10;;;;;;4972209;28;20031;-35
2023/10/13 11:35:58;;;;;;;6.72;2.50;;;20.80;96.10;;;;;;4971957;28;20436;-38
2023/10/13 11:46:16;;;;;;;9.23;2.88;;;21.10;94.30;;;;;;4972086;28;20034;-39
2023/10/13 11:48:54;;;;;;;7.60;2.67;;;21.10;94.50;;;;;;4972045;28;20050;-34
2023/10/13 11:51:31;;;;;;;13.05;2.60;;;21.10;94.60;;;;;;4971974;28;20484;-36
2023/10/13 11:53:58;;;;;;;7.22;3.13;;;21.00;94.60;;;;;;4972020;28;20042;-36
2023/10/13 11:56:24;;;;;;;9.05;2.78;;;21.10;94.80;;;;;;4971934;28;20366;-35
2023/10/13 11:58:50;;;;;;;7.03;2.47;;;21.00;94.80;;;;;;4970684;28;20070;-36
2023/10/13 12:04:30;;;;;;;5.85;2.53;;;21.00;94.90;;;;;;4971885;28;20552;-35
2023/10/13 12:07:14;;;;;;;5.82;2.38;;;21.00;95.10;;;;;;4975192;28;20610;-35
2023/10/13 12:12:25;;;;;;;9.05;2.92;;;21.00;95.60;;;;;;4975199;28;20023;-35
2023/10/13 12:14:56;;;;;;;6.40;2.42;;;21.00;95.30;;;;;;4957988;28;20023;-36
2023/10/13 12:17:34;;;;;;;5.18;2.75;;;21.00;95.30;;;;;;4975511;28;20514;-34
2023/10/13 12:20:06;;;;;;;5.78;2.30;;;21.00;95.30;;;;;;4975193;28;20029;-35
2023/10/13 12:22:54;;;;;;;9.40;2.70;;;21.00;95.30;;;;;;4975611;28;20033;-40
2023/10/13 12:28:18;;;;;;;4.88;2.05;;;21.00;95.40;;;;;;4954111;28;20042;-40
2023/10/13 12:30:52;;;;;;;7.60;2.33;;;21.00;95.40;;;;;;4975010;28;20027;-43
2023/10/13 12:33:24;;;;;;;;;;;21.00;95.40;;;;;;4975279;28;20038;-37
2023/10/13 12:36:06;;;;;;;8.40;2.33;;;21.00;95.50;;;;;;4974664;28;19992;-39
2023/10/13 12:52:15;;;;;;;6.68;2.42;;;21.00;95.50;;;;;;4974494;28;20027;-37
2023/10/13 12:54:42;;;;;;;4.75;2.22;;;21.00;95.50;;;;;;4957087;28;20157;-38
2023/10/13 12:57:09;;;;;;;3.53;1.80;;;21.00;95.60;;;;;;4974351;28;20023;-43
2023/10/13 12:59:35;;;;;;;7.53;2.53;;;21.00;95.60;;;;;;4974425;28;20488;-39
2023/10/13 13:02:06;;;;;;;4.25;2.15;;;21.00;95.60;;;;;;4974322;28;20438;-38
2023/10/13 13:04:36;;;;;;;9.23;2.10;;;21.00;95.60;;;;;;4974269;28;20023;-41
2023/10/13 13:07:03;;;;;;;5.05;2.15;;;21.10;95.60;;;;;;4974117;28;20019;-43
2023/10/13 13:09:30;;;;;;;4.75;2.25;;;21.10;95.60;;;;;;4974165;28;20027;-39
2023/10/13 13:11:59;;;;;;;8.65;2.30;;;21.10;95.60;;;;;;4974143;28;20488;-42
2023/10/13 13:14:33;;;;;;;5.50;2.17;;;21.10;95.60;;;;;;4974099;28;20026;-41
2023/10/13 13:17:04;;;;;;;5.70;1.90;;;21.00;95.60;;;;;;4973173;28;20058;-39
2023/10/13 13:19:41;;;;;;;5.00;2.00;;;21.10;95.60;;;;;;4973993;28;20030;-44
2023/10/13 13:22:11;;;;;;;4.07;2.10;;;21.10;95.60;;;;;;4974029;28;20037;-39
2023/10/13 13:24:43;;;;;;;4.70;2.05;;;21.10;95.60;;;;;;4973921;28;20035;-40
2023/10/13 13:27:13;;;;;;;5.82;2.20;;;21.10;95.60;;;;;;4973756;28;20027;-40
2023/10/13 13:29:42;;;;;;;3.97;2.00;;;21.10;95.60;;;;;;4973818;28;20023;-43
2023/10/13 13:32:18;;;;;;;3.67;2.08;;;21.10;95.60;;;;;;4972671;28;20046;-42
2023/10/13 13:34:44;;;;;;;4.95;2.10;;;21.10;95.60;;;;;;4972397;28;20031;-40
2023/10/13 13:39:45;;;;;;;3.50;1.90;;;21.10;95.70;;;;;;4972044;28;20047;-34
2023/10/13 13:42:17;;;;;;;3.20;1.92;;;21.10;95.70;;;;;;4973943;28;20380;-35
2023/10/13 13:44:48;;;;;;;4.63;2.00;;;21.10;95.60;;;;;;4973707;28;20044;-34
2023/10/13 13:47:14;;;;;;;3.67;2.20;;;21.10;95.60;;;;;;4973747;28;20030;-37
2023/10/13 13:49:45;;;;;;;7.18;2.28;;;21.10;95.60;;;;;;4973401;28;20031;-35
2023/10/13 13:52:17;;;;;;;3.63;1.80;;;21.10;95.60;;;;;;4973376;28;20062;-36
2023/10/13 13:54:43;;;;;;;5.20;2.00;;;21.10;95.60;;;;;;4973359;28;20025;-34
2023/10/13 13:57:09;;;;;;;4.10;2.00;;;21.10;95.60;;;;;;4973258;28;20041;-34
2023/10/13 13:59:36;;;;;;;4.75;2.15;;;21.10;95.60;;;;;;4973302;28;20027;-34
2023/10/13 14:02:19;;;;;;;3.40;2.08;;;21.20;95.60;;;;;;4973226;28;20030;-35
2023/10/13 14:04:46;;;;;;;3.28;2.00;;;21.10;95.50;;;;;;4973118;28;20396;-36
2023/10/13 14:07:14;;;;;;;3.65;1.77;;;21.20;95.60;;;;;;4973054;28;20105;-35
2023/10/13 14:09:43;;;;;;;5.53;2.08;;;21.10;95.50;;;;;;4973099;28;20034;-35
2023/10/13 14:12:29;;;;;;;4.45;1.85;;;21.10;95.50;;;;;;4973134;28;20034;-35
2023/10/13 14:14:57;;;;;;;4.53;2.00;;;21.10;95.50;;;;;;4972637;28;20031;-34
2023/10/13 14:17:29;;;;;;;6.22;2.10;;;21.20;95.50;;;;;;4972866;28;20023;-37
2023/10/13 14:19:57;;;;;;;4.35;2.30;;;21.20;95.60;;;;;;4973018;28;20054;-36
2023/10/13 14:22:24;;;;;;;5.60;2.20;;;21.10;95.50;;;;;;4972885;28;20504;-33
2023/10/13 14:24:58;;;;;;;5.50;2.15;;;21.20;95.50;;;;;;4972820;28;20480;-34
2023/10/13 14:27:25;;;;;;;4.43;2.07;;;21.20;95.50;;;;;;4972272;28;20022;-34
2023/10/13 14:29:54;;;;;;;4.88;2.35;;;21.20;95.50;;;;;;4972328;28;20348;-35
2023/10/13 14:32:24;;;;;;;3.55;1.98;;;21.20;95.50;;;;;;4973032;28;20026;-34
2023/10/13 14:34:54;;;;;;;5.25;2.22;;;21.20;95.50;;;;;;4972802;28;20015;-37
2023/10/13 14:37:32;;;;;;;3.35;1.90;;;21.20;95.60;;;;;;4972596;28;20507;-34
2023/10/13 14:39:59;;;;;;;3.30;1.90;;;21.20;95.50;;;;;;4972634;28;20503;-34
2023/10/13 14:42:28;;;;;;;3.63;1.83;;;21.20;95.50;;;;;;4972651;28;20029;-33
2023/10/13 14:44:57;;;;;;;4.60;1.90;;;21.20;95.50;;;;;;4972541;28;20042;-35
2023/10/13 14:47:24;;;;;;;5.78;2.00;;;21.20;95.50;;;;;;4972502;28;20030;-33
2023/10/13 14:49:59;;;;;;;5.82;1.70;;;21.20;95.50;;;;;;4972573;28;20034;-33
2023/10/13 14:52:25;;;;;;;4.30;1.80;;;21.20;95.50;;;;;;4972446;28;20049;-33
2023/10/13 14:54:57;;;;;;;5.20;2.15;;;21.20;95.50;;;;;;4972490;28;20026;-33
2023/10/13 14:57:26;;;;;;;3.58;1.80;;;21.20;95.50;;;;;;4972684;28;20380;-34
2023/10/13 14:59:55;;;;;;;3.15;1.83;;;21.20;95.50;;;;;;4972355;28;20481;-34
2023/10/13 15:02:21;;;;;;;3.13;1.83;;;21.20;95.50;;;;;;4972463;28;20063;-34
2023/10/13 15:04:50;;;;;;;3.25;1.67;;;21.20;95.50;;;;;;4972380;28;20117;-33
2023/10/13 15:07:17;;;;;;;4.03;1.90;;;21.20;95.50;;;;;;4972248;28;20416;-36
2023/10/13 15:09:44;;;;;;;5.28;1.98;;;21.20;95.50;;;;;;4972410;28;20030;-34
2023/10/13 15:12:10;;;;;;;5.40;2.20;;;21.20;95.50;;;;;;4972488;28;20031;-34
2023/10/13 15:14:42;;;;;;;3.25;1.83;;;21.20;95.50;;;;;;4972268;28;20081;-33
2023/10/13 15:17:09;;;;;;;2.83;1.75;;;21.20;95.50;;;;;;4972198;28;20019;-36
2023/10/13 15:19:42;;;;;;;3.17;1.63;;;21.20;95.50;;;;;;4972183;28;20023;-34
2023/10/13 15:22:16;;;;;;;6.20;1.80;;;21.20;95.50;;;;;;4972329;28;20158;-37
2023/10/13 15:24:57;;;;;;;4.20;1.88;;;21.10;95.50;;;;;;4972189;28;20031;-34
2023/10/13 15:27:23;;;;;;;3.35;1.90;;;21.20;95.50;;;;;;4972142;28;20042;-36
2023/10/13 15:29:50;;;;;;;3.65;1.88;;;21.10;95.40;;;;;;4972591;28;20375;-35
2023/10/13 15:35:00;;;;;;;4.22;1.83;;;21.10;95.40;;;;;;4972167;28;20397;-35
2023/10/13 15:37:27;;;;;;;2.85;1.77;;;21.10;95.40;;;;;;4971938;28;20031;-33
2023/10/13 15:39:52;;;;;;;4.53;1.90;;;21.20;95.50;;;;;;4973816;28;20384;-36
2023/10/13 15:42:20;;;;;;;2.72;1.80;;;21.20;95.50;;;;;;4975769;28;20121;-34
2023/10/13 15:44:48;;;;;;;4.32;1.83;;;21.10;95.40;;;;;;4975645;28;20035;-33
2023/10/13 15:47:14;;;;;;;3.35;1.88;;;21.10;95.40;;;;;;4975712;28;20031;-36
2023/10/13 15:49:42;;;;;;;2.08;1.70;;;21.10;95.40;;;;;;4975692;28;20384;-33
2023/10/13 15:52:09;;;;;;;3.78;1.77;;;21.10;95.50;;;;;;4958446;28;20440;-33
2023/10/13 15:54:35;;;;;;;3.63;1.75;;;21.10;95.50;;;;;;4975598;28;20077;-36
2023/10/13 15:57:01;;;;;;;7.38;1.80;;;21.10;95.50;;;;;;4975354;28;20023;-32
2023/10/13 15:59:26;;;;;;;3.45;1.80;;;21.10;95.40;;;;;;4975382;28;20027;-33
2023/10/13 16:01:57;;;;;;;2.80;1.98;;;21.10;95.50;;;;;;4975442;28;20121;-34
2023/10/13 16:04:23;;;;;;;4.15;1.60;;;21.10;95.50;;;;;;4975422;28;20037;-34
2023/10/13 16:06:52;;;;;;;2.53;1.38;;;21.10;95.80;;;;;;4975307;28;20070;-35
2023/10/13 16:09:23;;;;;;;2.60;1.30;;;21.10;95.50;;;;;;4975256;28;20400;-35
2023/10/13 16:11:50;;;;;;;4.20;1.80;;;21.10;95.50;;;;;;4975257;28;20264;-34
2023/10/13 16:14:19;;;;;;;3.55;1.77;;;21.10;95.50;;;;;;4975221;28;20033;-35
2023/10/13 16:16:49;;;;;;;3.80;1.77;;;21.10;95.50;;;;;;4975237;28;20110;-34
2023/10/13 16:19:23;;;;;;;2.15;1.45;;;21.10;95.50;;;;;;4975205;28;20022;-34
2023/10/13 16:21:53;;;;;;;2.95;1.77;;;21.10;95.50;;;;;;4975200;28;20034;-33
2023/10/13 16:24:20;;;;;;;3.30;1.90;;;21.00;95.40;;;;;;4975195;28;20058;-33
2023/10/13 16:26:49;;;;;;;2.88;1.92;;;21.00;95.40;;;;;;4975061;28;20101;-36
2023/10/13 16:29:16;;;;;;;3.33;1.83;;;21.00;95.50;;;;;;4974839;28;20030;-35
2023/10/13 16:31:45;;;;;;;4.30;1.55;;;21.00;95.40;;;;;;4974941;28;20504;-34
2023/10/13 16:34:12;;;;;;;2.90;1.58;;;21.00;95.40;;;;;;4974900;28;20081;-33
2023/10/13 16:36:38;;;;;;;2.22;1.50;;;21.00;95.40;;;;;;4974601;28;20038;-34
2023/10/13 16:39:03;;;;;;;3.45;1.70;;;21.00;95.50;;;;;;4974789;28;20026;-35
2023/10/13 16:41:29;;;;;;;2.28;1.40;;;21.00;95.50;;;;;;4974751;28;20026;-32